createdAt,value
2018-06-01T00:00:46.623Z,1015.07
2018-06-01T00:01:55.953Z,1015.02
2018-06-01T00:03:04.819Z,1015.03
2018-06-01T00:04:13.735Z,1015.03
2018-06-01T00:05:22.601Z,1015.04
2018-06-01T00:06:31.466Z,1015
2018-06-01T00:07:40.334Z,1014.98
2018-06-01T00:08:49.473Z,1014.99
2018-06-01T00:09:58.629Z,1014.93
2018-06-01T00:11:07.497Z,1014.92
2018-06-01T00:12:16.921Z,1014.98
2018-06-01T00:13:26.037Z,1014.96
2018-06-01T00:14:35.190Z,1014.94
2018-06-01T00:15:44.066Z,1014.96
2018-06-01T00:16:56.564Z,1014.96
2018-06-01T00:18:05.429Z,1014.96
2018-06-01T00:19:14.391Z,1014.96
2018-06-01T00:20:23.532Z,1014.96
2018-06-01T00:21:32.398Z,1014.94
2018-06-01T00:22:41.549Z,1014.98
2018-06-01T00:23:50.412Z,1014.94
2018-06-01T00:24:59.438Z,1014.88
2018-06-01T00:26:08.918Z,1014.94
2018-06-01T00:27:17.785Z,1014.84
2018-06-01T00:28:26.649Z,1014.87
2018-06-01T00:29:35.517Z,1014.84
2018-06-01T00:30:44.380Z,1014.85
2018-06-01T00:31:53.521Z,1014.82
2018-06-01T00:33:02.385Z,1014.78
2018-06-01T00:34:11.530Z,1014.82
2018-06-01T00:35:20.394Z,1014.78
2018-06-01T00:36:29.359Z,1014.75
2018-06-01T00:37:38.501Z,1014.73
2018-06-01T00:38:47.365Z,1014.69
2018-06-01T00:39:56.229Z,1014.73
2018-06-01T00:41:05.380Z,1014.68
2018-06-01T00:42:14.518Z,1014.69
2018-06-01T00:43:23.379Z,1014.66
2018-06-01T00:44:32.243Z,1014.68
2018-06-01T00:45:41.110Z,1014.63
2018-06-01T00:46:50.253Z,1014.62
2018-06-01T00:47:59.468Z,1014.67
2018-06-01T00:49:08.334Z,1014.65
2018-06-01T00:50:17.200Z,1014.63
2018-06-01T00:51:26.345Z,1014.62
2018-06-01T00:52:35.493Z,1014.62
2018-06-01T00:53:44.985Z,1014.66
2018-06-01T00:54:53.852Z,1014.66
2018-06-01T00:56:02.716Z,1014.64
2018-06-01T00:57:11.579Z,1014.64
2018-06-01T00:58:20.443Z,1014.62
2018-06-01T00:59:29.590Z,1014.64
2018-06-01T01:00:38.740Z,1014.61
2018-06-01T01:01:47.600Z,1014.58
2018-06-01T01:02:56.464Z,1014.6
2018-06-01T01:04:05.331Z,1014.66
2018-06-01T01:05:14.194Z,1014.65
2018-06-01T01:06:23.058Z,1014.65
2018-06-01T01:07:31.921Z,1014.68
2018-06-01T01:08:40.786Z,1014.7
2018-06-01T01:09:49.658Z,1014.67
2018-06-01T01:10:58.517Z,1014.69
2018-06-01T01:12:07.661Z,1014.68
2018-06-01T01:13:16.524Z,1014.62
2018-06-01T01:14:25.711Z,1014.64
2018-06-01T01:15:34.861Z,1014.62
2018-06-01T01:16:44.078Z,1014.57
2018-06-01T01:17:53.222Z,1014.6
2018-06-01T01:19:02.645Z,1014.65
2018-06-01T01:20:11.509Z,1014.62
2018-06-01T01:21:20.374Z,1014.63
2018-06-01T01:22:29.870Z,1014.64
2018-06-01T01:23:38.736Z,1014.69
2018-06-01T01:24:47.603Z,1014.64
2018-06-01T01:25:56.462Z,1014.7
2018-06-01T01:27:05.325Z,1014.68
2018-06-01T01:28:14.617Z,1014.7
2018-06-01T01:29:23.480Z,1014.68
2018-06-01T01:30:32.346Z,1014.69
2018-06-01T01:31:41.211Z,1014.71
2018-06-01T01:32:50.075Z,1014.69
2018-06-01T01:33:59.091Z,1014.7
2018-06-01T01:35:07.959Z,1014.71
2018-06-01T01:36:16.819Z,1014.72
2018-06-01T01:37:25.684Z,1014.67
2018-06-01T01:38:34.833Z,1014.64
2018-06-01T01:39:44.050Z,1014.65
2018-06-01T01:40:52.917Z,1014.63
2018-06-01T01:42:01.795Z,1014.6
2018-06-01T01:43:10.659Z,1014.62
2018-06-01T01:44:19.799Z,1014.62
2018-06-01T01:45:29.290Z,1014.62
2018-06-01T01:46:38.153Z,1014.68
2018-06-01T01:47:47.025Z,1014.73
2018-06-01T01:48:56.165Z,1014.78
2018-06-01T01:50:05.029Z,1014.76
2018-06-01T01:51:13.897Z,1014.69
2018-06-01T01:52:23.044Z,1014.65
2018-06-01T01:53:31.909Z,1014.63
2018-06-01T01:54:40.786Z,1014.63
2018-06-01T01:55:49.645Z,1014.63
2018-06-01T01:56:58.609Z,1014.66
2018-06-01T01:58:07.476Z,1014.75
2018-06-01T01:59:16.340Z,1014.76
2018-06-01T02:00:25.201Z,1014.78
2018-06-01T02:01:34.065Z,1014.74
2018-06-01T02:02:43.280Z,1014.71
2018-06-01T02:03:52.144Z,1014.68
2018-06-01T02:05:01.008Z,1014.73
2018-06-01T02:06:10.153Z,1014.76
2018-06-01T02:07:19.017Z,1014.7
2018-06-01T02:08:27.986Z,1014.72
2018-06-01T02:09:37.403Z,1014.73
2018-06-01T02:10:46.549Z,1014.7
2018-06-01T02:11:55.413Z,1014.7
2018-06-01T02:13:04.280Z,1014.71
2018-06-01T02:14:13.390Z,1014.67
2018-06-01T02:15:22.254Z,1014.63
2018-06-01T02:16:31.396Z,1014.63
2018-06-01T02:17:40.259Z,1014.67
2018-06-01T02:18:49.122Z,1014.68
2018-06-01T02:19:58.413Z,1014.66
2018-06-01T02:21:07.561Z,1014.63
2018-06-01T02:22:16.427Z,1014.65
2018-06-01T02:23:25.290Z,1014.68
2018-06-01T02:24:34.152Z,1014.67
2018-06-01T02:25:43.166Z,1014.7
2018-06-01T02:26:52.030Z,1014.73
2018-06-01T02:28:00.899Z,1014.74
2018-06-01T02:29:10.040Z,1014.77
2018-06-01T02:30:19.182Z,1014.81
2018-06-01T02:31:28.475Z,1014.8
2018-06-01T02:32:37.730Z,1014.75
2018-06-01T02:33:46.597Z,1014.73
2018-06-01T02:34:55.472Z,1014.73
2018-06-01T02:36:04.614Z,1014.74
2018-06-01T02:37:13.588Z,1014.83
2018-06-01T02:38:22.453Z,1014.76
2018-06-01T02:39:32.151Z,1014.79
2018-06-01T02:40:41.295Z,1014.77
2018-06-01T02:41:50.164Z,1014.75
2018-06-01T02:42:59.078Z,1014.76
2018-06-01T02:44:07.944Z,1014.72
2018-06-01T02:45:17.085Z,1014.75
2018-06-01T02:46:26.513Z,1014.78
2018-06-01T02:47:35.384Z,1014.81
2018-06-01T02:48:44.679Z,1014.79
2018-06-01T02:49:53.825Z,1014.83
2018-06-01T02:51:03.253Z,1014.8
2018-06-01T02:52:12.121Z,1014.8
2018-06-01T02:53:20.990Z,1014.81
2018-06-01T02:54:29.968Z,1014.87
2018-06-01T02:55:39.121Z,1014.84
2018-06-01T02:56:48.271Z,1014.88
2018-06-01T02:57:57.150Z,1014.83
2018-06-01T02:59:06.323Z,1014.82
2018-06-01T03:00:15.458Z,1014.86
2018-06-01T03:01:24.877Z,1014.91
2018-06-01T03:02:34.020Z,1014.91
2018-06-01T03:03:43.725Z,1014.95
2018-06-01T03:04:52.881Z,1014.96
2018-06-01T03:06:02.372Z,1014.96
2018-06-01T03:07:11.806Z,1014.98
2018-06-01T03:08:20.960Z,1014.99
2018-06-01T03:09:30.367Z,1015
2018-06-01T03:10:39.510Z,1014.99
2018-06-01T03:11:48.423Z,1014.97
2018-06-01T03:12:57.569Z,1014.97
2018-06-01T03:14:07.293Z,1014.99
2018-06-01T03:15:16.447Z,1014.98
2018-06-01T03:16:25.310Z,1014.99
2018-06-01T03:17:34.326Z,1015.01
2018-06-01T03:18:43.191Z,1014.96
2018-06-01T03:19:52.056Z,1014.98
2018-06-01T03:21:00.919Z,1015
2018-06-01T03:22:10.059Z,1014.96
2018-06-01T03:23:18.922Z,1015
2018-06-01T03:24:27.786Z,1014.99
2018-06-01T03:25:36.651Z,1014.99
2018-06-01T03:26:45.515Z,1014.97
2018-06-01T03:27:54.378Z,1014.97
2018-06-01T03:29:03.391Z,1015
2018-06-01T03:30:12.261Z,1014.98
2018-06-01T03:31:21.126Z,1015.02
2018-06-01T03:32:30.273Z,1015.05
2018-06-01T03:33:39.136Z,1015.06
2018-06-01T03:34:48.051Z,1015.07
2018-06-01T03:35:56.912Z,1015.06
2018-06-01T03:37:05.782Z,1015.07
2018-06-01T03:38:14.979Z,1015.05
2018-06-01T03:39:23.841Z,1015.06
2018-06-01T03:40:32.705Z,1015.06
2018-06-01T03:41:41.579Z,1015.05
2018-06-01T03:42:50.998Z,1015.04
2018-06-01T03:43:59.861Z,1015.02
2018-06-01T03:45:08.722Z,1014.98
2018-06-01T03:46:17.938Z,1015
2018-06-01T03:47:26.801Z,1015
2018-06-01T03:48:35.944Z,1014.98
2018-06-01T03:49:44.806Z,1015.03
2018-06-01T03:50:53.677Z,1015.04
2018-06-01T03:52:02.684Z,1014.99
2018-06-01T03:53:11.548Z,1014.98
2018-06-01T03:54:20.415Z,1014.94
2018-06-01T03:55:29.275Z,1014.94
2018-06-01T03:56:38.138Z,1014.87
2018-06-01T03:57:47.379Z,1014.84
2018-06-01T03:58:56.246Z,1014.88
2018-06-01T04:00:05.666Z,1014.86
2018-06-01T04:01:14.532Z,1014.87
2018-06-01T04:02:23.684Z,1014.86
2018-06-01T04:03:32.697Z,1014.85
2018-06-01T04:04:41.568Z,1014.85
2018-06-01T04:05:50.431Z,1014.86
2018-06-01T04:06:59.297Z,1014.87
2018-06-01T04:08:08.444Z,1014.86
2018-06-01T04:09:18.022Z,1014.85
2018-06-01T04:10:26.928Z,1014.9
2018-06-01T04:11:36.039Z,1014.9
2018-06-01T04:12:44.902Z,1014.87
2018-06-01T04:13:53.768Z,1014.93
2018-06-01T04:15:02.961Z,1014.95
2018-06-01T04:16:11.826Z,1014.97
2018-06-01T04:17:20.962Z,1014.91
2018-06-01T04:18:29.826Z,1014.98
2018-06-01T04:19:38.689Z,1014.93
2018-06-01T04:20:47.553Z,1014.97
2018-06-01T04:21:56.418Z,1014.98
2018-06-01T04:23:05.556Z,1014.99
2018-06-01T04:24:14.697Z,1015.01
2018-06-01T04:25:23.839Z,1015
2018-06-01T04:26:32.702Z,1015.03
2018-06-01T04:27:41.571Z,1014.96
2018-06-01T04:28:50.775Z,1014.96
2018-06-01T04:29:59.916Z,1014.97
2018-06-01T04:31:09.055Z,1015.03
2018-06-01T04:32:18.171Z,1015.02
2018-06-01T04:33:27.034Z,1015
2018-06-01T04:34:35.901Z,1015.01
2018-06-01T04:35:44.764Z,1015
2018-06-01T04:36:54.195Z,1014.98
2018-06-01T04:38:03.212Z,1015.01
2018-06-01T04:39:12.077Z,1014.99
2018-06-01T04:40:20.945Z,1015.02
2018-06-01T04:41:30.383Z,1015.03
2018-06-01T04:42:39.247Z,1015.02
2018-06-01T04:43:48.261Z,1014.97
2018-06-01T04:44:57.127Z,1015.04
2018-06-01T04:46:06.270Z,1015.02
2018-06-01T04:47:15.134Z,1015.03
2018-06-01T04:48:23.998Z,1015.03
2018-06-01T04:49:32.914Z,1015.06
2018-06-01T04:50:42.061Z,1015.03
2018-06-01T04:51:50.928Z,1014.98
2018-06-01T04:52:59.796Z,1014.99
2018-06-01T04:54:08.664Z,1014.95
2018-06-01T04:55:17.528Z,1014.94
2018-06-01T04:56:26.521Z,1014.98
2018-06-01T04:57:35.392Z,1014.96
2018-06-01T04:58:44.538Z,1014.95
2018-06-01T04:59:53.778Z,1014.97
2018-06-01T05:01:02.647Z,1014.98
2018-06-01T05:02:12.066Z,1015.02
2018-06-01T05:03:20.929Z,1015.04
2018-06-01T05:04:30.076Z,1015.04
2018-06-01T05:05:39.419Z,1015.05
2018-06-01T05:06:48.283Z,1015.03
2018-06-01T05:07:57.429Z,1015.04
2018-06-01T05:09:06.294Z,1015.09
2018-06-01T05:10:15.159Z,1015.08
2018-06-01T05:11:24.172Z,1015.06
2018-06-01T05:12:33.037Z,1015.07
2018-06-01T05:13:41.902Z,1015.1
2018-06-01T05:14:50.767Z,1015.07
2018-06-01T05:15:59.629Z,1015.06
2018-06-01T05:17:09.310Z,1015.05
2018-06-01T05:18:18.173Z,1015.02
2018-06-01T05:19:27.043Z,1015.05
2018-06-01T05:20:36.194Z,1015.03
2018-06-01T05:21:45.056Z,1014.98
2018-06-01T05:22:54.660Z,1014.96
2018-06-01T05:24:03.524Z,1014.99
2018-06-01T05:25:12.386Z,1015.03
2018-06-01T05:26:21.260Z,1015.03
2018-06-01T05:27:30.120Z,1015.03
2018-06-01T05:28:39.094Z,1015.02
2018-06-01T05:29:47.958Z,1015.02
2018-06-01T05:30:56.818Z,1015.02
2018-06-01T05:32:05.686Z,1014.99
2018-06-01T05:33:14.551Z,1015
2018-06-01T05:34:23.566Z,1014.99
2018-06-01T05:35:32.756Z,1014.97
2018-06-01T05:36:41.571Z,1014.95
2018-06-01T05:37:50.712Z,1014.94
2018-06-01T05:38:59.576Z,1014.91
2018-06-01T05:40:08.598Z,1014.92
2018-06-01T05:41:17.466Z,1014.94
2018-06-01T05:42:26.332Z,1014.85
2018-06-01T05:43:35.195Z,1014.86
2018-06-01T05:44:44.346Z,1014.84
2018-06-01T05:45:53.539Z,1014.85
2018-06-01T05:47:02.409Z,1014.85
2018-06-01T05:48:11.557Z,1014.84
2018-06-01T05:49:20.422Z,1014.85
2018-06-01T05:50:29.286Z,1014.86
2018-06-01T05:51:38.437Z,1014.86
2018-06-01T05:52:47.304Z,1014.86
2018-06-01T05:53:56.167Z,1014.85
2018-06-01T05:55:05.030Z,1014.85
2018-06-01T05:56:13.897Z,1014.82
2018-06-01T05:57:23.143Z,1014.85
2018-06-01T05:58:32.277Z,1014.83
2018-06-01T05:59:41.141Z,1014.9
2018-06-01T06:00:50.006Z,1014.91
2018-06-01T06:01:58.872Z,1014.93
2018-06-01T06:03:08.095Z,1014.88
2018-06-01T06:04:17.237Z,1014.88
2018-06-01T06:05:26.668Z,1014.91
2018-06-01T06:06:35.807Z,1014.89
2018-06-01T06:07:44.673Z,1014.85
2018-06-01T06:08:53.542Z,1014.87
2018-06-01T06:10:02.407Z,1014.88
2018-06-01T06:11:11.551Z,1014.9
2018-06-01T06:12:20.416Z,1014.9
2018-06-01T06:13:29.315Z,1014.93
2018-06-01T06:14:39.029Z,1014.93
2018-06-01T06:15:48.179Z,1014.92
2018-06-01T06:16:57.322Z,1014.97
2018-06-01T06:18:06.189Z,1014.91
2018-06-01T06:19:15.330Z,1014.93
2018-06-01T06:20:24.246Z,1014.92
2018-06-01T06:21:33.508Z,1014.94
2018-06-01T06:22:42.374Z,1014.88
2018-06-01T06:23:51.239Z,1014.93
2018-06-01T06:25:00.106Z,1014.92
2018-06-01T06:26:09.020Z,1014.91
2018-06-01T06:27:17.888Z,1014.91
2018-06-01T06:28:26.755Z,1014.95
2018-06-01T06:29:35.627Z,1014.97
2018-06-01T06:30:44.491Z,1014.93
2018-06-01T06:31:53.416Z,1014.96
2018-06-01T06:33:02.271Z,1014.93
2018-06-01T06:34:11.418Z,1014.94
2018-06-01T06:35:20.283Z,1014.94
2018-06-01T06:36:29.150Z,1014.93
2018-06-01T06:37:38.405Z,1014.93
2018-06-01T06:38:47.232Z,1014.97
2018-06-01T06:39:56.096Z,1014.98
2018-06-01T06:41:04.961Z,1015.02
2018-06-01T06:42:13.925Z,1015.02
2018-06-01T06:43:22.791Z,1015.03
2018-06-01T06:44:31.661Z,1015.07
2018-06-01T06:45:40.527Z,1015.02
2018-06-01T06:46:49.391Z,1015.01
2018-06-01T06:47:58.543Z,1015.01
2018-06-01T06:49:07.735Z,1015.03
2018-06-01T06:50:16.598Z,1015.04
2018-06-01T06:51:25.463Z,1015.03
2018-06-01T06:52:34.332Z,1015
2018-06-01T06:53:43.195Z,1015.02
2018-06-01T06:54:52.263Z,1015.01
2018-06-01T06:56:01.687Z,1015.01
2018-06-01T06:57:10.554Z,1015.01
2018-06-01T06:58:19.420Z,1015
2018-06-01T06:59:28.288Z,1015
2018-06-01T07:00:37.353Z,1015.04
2018-06-01T07:01:46.495Z,1015.07
2018-06-01T07:02:55.358Z,1015.04
2018-06-01T07:04:04.226Z,1015.07
2018-06-01T07:05:13.092Z,1015.09
2018-06-01T07:06:22.233Z,1015.07
2018-06-01T07:07:31.102Z,1015.09
2018-06-01T07:08:39.966Z,1015.08
2018-06-01T07:09:48.833Z,1015.08
2018-06-01T07:10:57.704Z,1015.09
2018-06-01T07:12:06.897Z,1015.12
2018-06-01T07:13:16.040Z,1015.17
2018-06-01T07:14:24.920Z,1015.13
2018-06-01T07:15:34.063Z,1015.16
2018-06-01T07:16:42.925Z,1015.11
2018-06-01T07:17:52.276Z,1015.1
2018-06-01T07:19:01.419Z,1015.1
2018-06-01T07:20:10.285Z,1015.11
2018-06-01T07:21:19.440Z,1015.13
2018-06-01T07:22:28.939Z,1015.16
2018-06-01T07:23:38.125Z,1015.13
2018-06-01T07:24:46.991Z,1015.12
2018-06-01T07:25:55.855Z,1015.13
2018-06-01T07:27:04.722Z,1015.11
2018-06-01T07:28:13.588Z,1015.12
2018-06-01T07:29:23.161Z,1015.05
2018-06-01T07:30:32.027Z,1015.06
2018-06-01T07:31:41.170Z,1015.07
2018-06-01T07:32:50.631Z,1015.09
2018-06-01T07:33:59.498Z,1015.09
2018-06-01T07:35:08.865Z,1015.1
2018-06-01T07:36:17.731Z,1015.13
2018-06-01T07:37:26.600Z,1015.09
2018-06-01T07:38:35.467Z,1015.07
2018-06-01T07:39:44.334Z,1015.1
2018-06-01T07:40:53.530Z,1015.13
2018-06-01T07:42:02.675Z,1015.11
2018-06-01T07:43:11.540Z,1015.15
2018-06-01T07:44:20.414Z,1015.12
2018-06-01T07:45:29.275Z,1015.11
2018-06-01T07:46:38.442Z,1015.14
2018-06-01T07:47:47.598Z,1015.17
2018-06-01T07:48:56.470Z,1015.13
2018-06-01T07:50:05.336Z,1015.12
2018-06-01T07:51:14.203Z,1015.18
2018-06-01T07:52:23.349Z,1015.15
2018-06-01T07:53:32.221Z,1015.21
2018-06-01T07:54:41.081Z,1015.23
2018-06-01T07:55:49.947Z,1015.28
2018-06-01T07:56:58.815Z,1015.24
2018-06-01T07:58:07.835Z,1015.25
2018-06-01T07:59:16.702Z,1015.2
2018-06-01T08:00:25.574Z,1015.21
2018-06-01T08:01:34.439Z,1015.22
2018-06-01T08:02:43.309Z,1015.21
2018-06-01T08:03:52.375Z,1015.23
2018-06-01T08:05:01.518Z,1015.22
2018-06-01T08:06:10.385Z,1015.21
2018-06-01T08:07:19.815Z,1015.27
2018-06-01T08:08:29.240Z,1015.29
2018-06-01T08:09:38.435Z,1015.22
2018-06-01T08:10:47.305Z,1015.21
2018-06-01T08:11:56.450Z,1015.2
2018-06-01T08:13:05.318Z,1015.25
2018-06-01T08:14:14.185Z,1015.26
2018-06-01T08:15:23.155Z,1015.29
2018-06-01T08:16:32.025Z,1015.26
2018-06-01T08:17:40.894Z,1015.21
2018-06-01T08:18:49.763Z,1015.21
2018-06-01T08:19:58.908Z,1015.21
2018-06-01T08:21:08.310Z,1015.22
2018-06-01T08:22:17.180Z,1015.23
2018-06-01T08:23:26.323Z,1015.21
2018-06-01T08:24:35.190Z,1015.19
2018-06-01T08:25:44.061Z,1015.18
2018-06-01T08:26:52.996Z,1015.21
2018-06-01T08:28:02.152Z,1015.2
2018-06-01T08:29:11.022Z,1015.21
2018-06-01T08:30:19.894Z,1015.23
2018-06-01T08:31:28.764Z,1015.21
2018-06-01T08:32:38.212Z,1015.23
2018-06-01T08:33:47.061Z,1015.19
2018-06-01T08:34:56.490Z,1015.23
2018-06-01T08:36:05.365Z,1015.24
2018-06-01T08:37:14.516Z,1015.22
2018-06-01T08:38:23.438Z,1015.22
2018-06-01T08:39:32.364Z,1015.25
2018-06-01T08:40:41.173Z,1015.19
2018-06-01T08:41:50.038Z,1015.19
2018-06-01T08:42:58.905Z,1015.21
2018-06-01T08:44:07.824Z,1015.2
2018-06-01T08:45:16.693Z,1015.2
2018-06-01T08:46:25.563Z,1015.16
2018-06-01T08:47:34.428Z,1015.18
2018-06-01T08:48:43.296Z,1015.19
2018-06-01T08:49:52.269Z,1015.19
2018-06-01T08:51:01.136Z,1015.2
2018-06-01T08:52:09.998Z,1015.2
2018-06-01T08:53:18.865Z,1015.18
2018-06-01T08:54:27.731Z,1015.19
2018-06-01T08:55:36.750Z,1015.13
2018-06-01T08:56:45.900Z,1015.13
2018-06-01T08:57:54.767Z,1015.1
2018-06-01T08:59:03.727Z,1015.13
2018-06-01T09:00:13.302Z,1015.11
2018-06-01T09:01:22.422Z,1015.12
2018-06-01T09:02:31.859Z,1015.13
2018-06-01T09:03:40.726Z,1015.17
2018-06-01T09:04:49.593Z,1015.19
2018-06-01T09:05:58.463Z,1015.17
2018-06-01T09:07:07.732Z,1015.18
2018-06-01T09:08:16.598Z,1015.2
2018-06-01T09:09:25.469Z,1015.18
2018-06-01T09:10:34.337Z,1015.19
2018-06-01T09:11:43.206Z,1015.18
2018-06-01T09:12:52.073Z,1015.2
2018-06-01T09:14:00.941Z,1015.2
2018-06-01T09:15:09.808Z,1015.21
2018-06-01T09:16:18.676Z,1015.18
2018-06-01T09:17:27.546Z,1015.2
2018-06-01T09:18:36.664Z,1015.19
2018-06-01T09:19:45.533Z,1015.2
2018-06-01T09:20:54.403Z,1015.17
2018-06-01T09:22:03.547Z,1015.15
2018-06-01T09:23:12.742Z,1015.08
2018-06-01T09:24:21.774Z,1015.15
2018-06-01T09:25:30.634Z,1015.07
2018-06-01T09:26:39.503Z,1015.08
2018-06-01T09:27:48.373Z,1015.04
2018-06-01T09:28:57.241Z,1015.03
2018-06-01T09:30:06.486Z,1014.99
2018-06-01T09:31:15.636Z,1015
2018-06-01T09:32:24.508Z,1014.99
2018-06-01T09:33:33.375Z,1014.96
2018-06-01T09:34:42.243Z,1015.01
2018-06-01T09:35:51.160Z,1014.95
2018-06-01T09:37:00.029Z,1015
2018-06-01T09:38:09.174Z,1015.03
2018-06-01T09:39:18.042Z,1015.04
2018-06-01T09:40:26.916Z,1015.03
2018-06-01T09:41:35.834Z,1015.06
2018-06-01T09:42:44.707Z,1015.02
2018-06-01T09:43:53.858Z,1015.03
2018-06-01T09:45:03.012Z,1015.06
2018-06-01T09:46:11.881Z,1015.05
2018-06-01T09:47:20.901Z,1015.03
2018-06-01T09:48:29.772Z,1015.01
2018-06-01T09:49:38.923Z,1015
2018-06-01T09:50:47.826Z,1014.99
2018-06-01T09:51:56.757Z,1014.97
2018-06-01T09:53:06.394Z,1015.01
2018-06-01T09:54:15.270Z,1015.05
2018-06-01T09:55:24.174Z,1015.02
2018-06-01T09:56:33.052Z,1015.02
2018-06-01T09:57:42.197Z,1015.04
2018-06-01T09:58:51.218Z,1015.04
2018-06-01T10:00:00.402Z,1015
2018-06-01T10:01:09.549Z,1015.04
2018-06-01T10:02:18.419Z,1015.01
2018-06-01T10:03:27.571Z,1015.04
2018-06-01T10:04:36.439Z,1015.05
2018-06-01T10:05:45.308Z,1014.98
2018-06-01T10:06:54.182Z,1015.04
2018-06-01T10:08:03.048Z,1015.01
2018-06-01T10:09:11.917Z,1015
2018-06-01T10:10:20.936Z,1015.02
2018-06-01T10:11:30.086Z,1015
2018-06-01T10:12:38.958Z,1014.94
2018-06-01T10:13:47.827Z,1014.98
2018-06-01T10:14:56.698Z,1014.98
2018-06-01T10:16:05.850Z,1014.95
2018-06-01T10:17:14.721Z,1014.93
2018-06-01T10:18:23.588Z,1014.92
2018-06-01T10:19:32.460Z,1014.94
2018-06-01T10:20:41.885Z,1014.93
2018-06-01T10:21:50.852Z,1014.93
2018-06-01T10:22:59.997Z,1014.91
2018-06-01T10:24:08.871Z,1014.95
2018-06-01T10:25:17.737Z,1014.87
2018-06-01T10:26:26.657Z,1014.87
2018-06-01T10:27:35.784Z,1014.83
2018-06-01T10:28:44.936Z,1014.87
2018-06-01T10:29:54.085Z,1014.85
2018-06-01T10:31:03.234Z,1014.84
2018-06-01T10:32:12.386Z,1014.81
2018-06-01T10:33:21.590Z,1014.83
2018-06-01T10:34:30.461Z,1014.84
2018-06-01T10:35:39.334Z,1014.82
2018-06-01T10:36:48.762Z,1014.78
2018-06-01T10:37:57.640Z,1014.79
2018-06-01T10:39:06.968Z,1014.79
2018-06-01T10:40:16.380Z,1014.8
2018-06-01T10:41:26.396Z,1014.79
2018-06-01T10:42:35.265Z,1014.82
2018-06-01T10:43:44.571Z,1014.74
2018-06-01T10:44:53.530Z,1014.73
2018-06-01T10:46:02.407Z,1014.73
2018-06-01T10:47:11.277Z,1014.76
2018-06-01T10:48:20.195Z,1014.77
2018-06-01T10:49:29.567Z,1014.75
2018-06-01T10:50:38.760Z,1014.77
2018-06-01T10:51:47.625Z,1014.73
2018-06-01T10:52:56.854Z,1014.76
2018-06-01T10:54:05.729Z,1014.8
2018-06-01T10:55:14.629Z,1014.79
2018-06-01T10:56:23.623Z,1014.82
2018-06-01T10:57:32.493Z,1014.76
2018-06-01T10:58:41.365Z,1014.82
2018-06-01T10:59:50.234Z,1014.77
2018-06-01T11:00:59.403Z,1014.8
2018-06-01T11:02:08.280Z,1014.73
2018-06-01T11:03:17.430Z,1014.73
2018-06-01T11:04:26.856Z,1014.73
2018-06-01T11:05:36.041Z,1014.73
2018-06-01T11:06:44.911Z,1014.7
2018-06-01T11:07:53.981Z,1014.8
2018-06-01T11:09:02.851Z,1014.78
2018-06-01T11:10:12.016Z,1014.81
2018-06-01T11:11:21.166Z,1014.79
2018-06-01T11:12:30.036Z,1014.81
2018-06-01T11:13:39.054Z,1014.81
2018-06-01T11:14:47.876Z,1014.86
2018-06-01T11:15:56.750Z,1014.89
2018-06-01T11:17:05.636Z,1014.9
2018-06-01T11:18:14.504Z,1014.85
2018-06-01T11:19:23.677Z,1014.86
2018-06-01T11:20:32.551Z,1014.85
2018-06-01T11:21:41.694Z,1014.87
2018-06-01T11:22:51.150Z,1014.89
2018-06-01T11:24:00.064Z,1014.9
2018-06-01T11:25:09.085Z,1014.93
2018-06-01T11:26:18.233Z,1014.88
2018-06-01T11:27:27.106Z,1014.93
2018-06-01T11:28:35.982Z,1014.92
2018-06-01T11:29:44.845Z,1014.93
2018-06-01T11:30:53.917Z,1014.9
2018-06-01T11:32:02.788Z,1014.87
2018-06-01T11:33:11.665Z,1014.92
2018-06-01T11:34:20.532Z,1014.89
2018-06-01T11:35:29.402Z,1014.9
2018-06-01T11:36:38.426Z,1014.9
2018-06-01T11:37:47.294Z,1014.85
2018-06-01T11:38:56.447Z,1014.92
2018-06-01T11:40:05.879Z,1014.88
2018-06-01T11:41:14.745Z,1014.93
2018-06-01T11:42:23.717Z,1014.85
2018-06-01T11:43:32.590Z,1014.9
2018-06-01T11:44:41.462Z,1014.88
2018-06-01T11:45:50.338Z,1014.91
2018-06-01T11:46:59.899Z,1014.92
2018-06-01T11:48:09.326Z,1014.9
2018-06-01T11:49:18.382Z,1014.93
2018-06-01T11:50:27.319Z,1014.9
2018-06-01T11:51:36.502Z,1014.9
2018-06-01T11:52:45.542Z,1014.91
2018-06-01T11:53:54.859Z,1014.88
2018-06-01T11:55:04.025Z,1014.89
2018-06-01T11:56:13.363Z,1014.9
2018-06-01T11:57:23.033Z,1014.89
2018-06-01T11:58:32.462Z,1014.85
2018-06-01T11:59:41.511Z,1014.86
2018-06-01T12:00:50.742Z,1014.77
2018-06-01T12:02:00.072Z,1014.76
2018-06-01T12:03:09.941Z,1014.81
2018-06-01T12:04:19.139Z,1014.76
2018-06-01T12:05:28.776Z,1014.7
2018-06-01T12:06:37.647Z,1014.75
2018-06-01T12:07:46.600Z,1014.64
2018-06-01T12:08:56.216Z,1014.67
2018-06-01T12:10:05.230Z,1014.64
2018-06-01T12:11:15.037Z,1014.59
2018-06-01T12:12:24.245Z,1014.61
2018-06-01T12:13:33.274Z,1014.68
2018-06-01T12:14:42.265Z,1014.65
2018-06-01T12:15:51.141Z,1014.65
2018-06-01T12:17:00.461Z,1014.73
2018-06-01T12:18:09.346Z,1014.74
2018-06-01T12:19:18.326Z,1014.78
2018-06-01T12:20:27.228Z,1014.78
2018-06-01T12:21:36.093Z,1014.77
2018-06-01T12:22:45.525Z,1014.78
2018-06-01T12:23:54.400Z,1014.8
2018-06-01T12:25:03.859Z,1014.9
2018-06-01T12:26:12.732Z,1014.83
2018-06-01T12:27:21.888Z,1014.89
2018-06-01T12:28:31.328Z,1014.94
2018-06-01T12:29:40.302Z,1014.87
2018-06-01T12:30:49.636Z,1014.91
2018-06-01T12:31:58.511Z,1014.95
2018-06-01T12:33:07.383Z,1014.93
2018-06-01T12:34:16.263Z,1014.95
2018-06-01T12:35:25.422Z,1014.99
2018-06-01T12:36:34.595Z,1015.03
2018-06-01T12:37:43.817Z,1015.06
2018-06-01T12:38:52.686Z,1015.09
2018-06-01T12:40:01.890Z,1015.13
2018-06-01T12:41:11.157Z,1015.1
2018-06-01T12:42:20.220Z,1015.2
2018-06-01T12:43:29.206Z,1015.22
2018-06-01T12:44:38.355Z,1015.23
2018-06-01T12:45:47.797Z,1015.21
2018-06-01T12:46:56.746Z,1015.18
2018-06-01T12:48:06.182Z,1015.19
2018-06-01T12:49:15.051Z,1015.15
2018-06-01T12:50:23.920Z,1015.12
2018-06-01T12:51:32.791Z,1015
2018-06-01T12:52:41.662Z,1014.94
2018-06-01T12:53:50.833Z,1014.91
2018-06-01T12:54:59.978Z,1014.88
2018-06-01T12:56:09.128Z,1014.86
2018-06-01T12:57:17.998Z,1014.87
2018-06-01T12:58:26.867Z,1014.81
2018-06-01T12:59:35.887Z,1014.83
2018-06-01T13:00:44.758Z,1014.8
2018-06-01T13:01:53.629Z,1014.74
2018-06-01T13:03:02.504Z,1014.76
2018-06-01T13:04:11.648Z,1014.74
2018-06-01T13:05:20.819Z,1014.74
2018-06-01T13:06:29.688Z,1014.77
2018-06-01T13:07:38.561Z,1014.75
2018-06-01T13:08:47.434Z,1014.76
2018-06-01T13:09:56.586Z,1014.77
2018-06-01T13:11:05.609Z,1014.79
2018-06-01T13:12:15.031Z,1014.82
2018-06-01T13:13:23.901Z,1014.83
2018-06-01T13:14:32.772Z,1014.79
2018-06-01T13:15:41.641Z,1014.82
2018-06-01T13:16:50.940Z,1014.87
2018-06-01T13:17:59.810Z,1014.88
2018-06-01T13:19:08.964Z,1014.87
2018-06-01T13:20:18.112Z,1014.87
2018-06-01T13:21:26.983Z,1014.87
2018-06-01T13:22:36.004Z,1014.8
2018-06-01T13:23:44.873Z,1014.75
2018-06-01T13:24:53.742Z,1014.78
2018-06-01T13:26:02.618Z,1014.75
2018-06-01T13:27:11.488Z,1014.69
2018-06-01T13:28:20.807Z,1014.67
2018-06-01T13:29:29.680Z,1014.66
2018-06-01T13:30:38.827Z,1014.67
2018-06-01T13:31:47.691Z,1014.63
2018-06-01T13:32:56.563Z,1014.6
2018-06-01T13:34:05.426Z,1014.66
2018-06-01T13:35:14.580Z,1014.64
2018-06-01T13:36:23.777Z,1014.68
2018-06-01T13:37:32.645Z,1014.7
2018-06-01T13:38:41.512Z,1014.69
2018-06-01T13:39:50.536Z,1014.66
2018-06-01T13:40:59.396Z,1014.67
2018-06-01T13:42:08.267Z,1014.64
2018-06-01T13:43:17.140Z,1014.58
2018-06-01T13:44:26.295Z,1014.61
2018-06-01T13:45:35.216Z,1014.61
2018-06-01T13:46:44.649Z,1014.69
2018-06-01T13:47:53.518Z,1014.72
2018-06-01T13:49:02.386Z,1014.7
2018-06-01T13:50:11.553Z,1014.7
2018-06-01T13:51:20.799Z,1014.76
2018-06-01T13:52:29.670Z,1014.77
2018-06-01T13:53:38.543Z,1014.79
2018-06-01T13:54:47.413Z,1014.8
2018-06-01T13:55:56.284Z,1014.77
2018-06-01T13:57:05.303Z,1014.8
2018-06-01T13:58:14.182Z,1014.78
2018-06-01T13:59:23.055Z,1014.82